Time;durP1;ratioP1;P1;durP2;ratioP2;P2;SDS_P1;SDS_P2;PMS_P1;PMS_P2;Temp;Humidity;BMP_temperature;BMP_pressure;BME280_temperature;BME280_humidity;BME280_pressure;Samples;Min_cycle;Max_cycle;Signal;HPM_P1;HPM_P2
2022/12/10 00:01:23;;;;;;;69.53;25.40;;;-2.10;99.90;;;;;;4979151;28;20053;-80
2022/12/10 00:04:04;;;;;;;56.53;23.52;;;-2.10;99.90;;;;;;4960044;28;20045;-79
2022/12/10 00:06:37;;;;;;;61.70;26.08;;;-2.20;99.90;;;;;;4987370;28;20053;-80
2022/12/10 00:09:05;;;;;;;60.83;25.30;;;-2.20;99.90;;;;;;4979984;28;20497;-80
2022/12/10 00:11:31;;;;;;;58.38;24.38;;;-2.30;99.90;;;;;;4978818;28;20136;-80
2022/12/10 00:13:58;;;;;;;63.22;25.23;;;-2.30;99.90;;;;;;4980510;28;20034;-80
2022/12/10 00:16:26;;;;;;;58.42;25.45;;;-2.40;99.90;;;;;;4980087;28;20038;-80
2022/12/10 00:18:52;;;;;;;94.45;48.63;;;-2.40;99.90;;;;;;4977669;28;20404;-80
2022/12/10 00:21:27;;;;;;;63.10;25.35;;;-2.50;99.90;;;;;;4967707;28;20382;-80
2022/12/10 00:23:53;;;;;;;59.00;25.00;;;-2.50;99.90;;;;;;4987106;28;20127;-80
2022/12/10 00:26:25;;;;;;;58.45;25.38;;;-2.50;99.90;;;;;;4980557;28;20050;-80
2022/12/10 00:28:52;;;;;;;61.15;26.13;;;-2.50;99.90;;;;;;4962211;28;20047;-80
2022/12/10 00:31:26;;;;;;;65.45;25.73;;;-2.50;99.90;;;;;;4960633;28;20118;-80
2022/12/10 00:33:57;;;;;;;66.50;25.02;;;-2.50;99.90;;;;;;4995037;28;20038;-80
2022/12/10 00:36:29;;;;;;;62.17;24.17;;;-2.50;99.90;;;;;;4993053;28;20045;-80
2022/12/10 00:38:55;;;;;;;64.82;26.25;;;-2.50;99.90;;;;;;4973565;28;20043;-80
2022/12/10 00:41:21;;;;;;;64.18;24.38;;;-2.50;99.90;;;;;;4981551;28;20050;-80
2022/12/10 00:43:47;;;;;;;65.55;26.25;;;-2.60;99.90;;;;;;5002486;28;20096;-80
2022/12/10 00:46:15;;;;;;;60.20;25.10;;;-2.50;99.90;;;;;;4980474;28;20124;-80
2022/12/10 00:48:45;;;;;;;66.82;27.20;;;-2.60;99.90;;;;;;4995085;28;20069;-80
2022/12/10 00:51:17;;;;;;;59.75;25.05;;;-2.60;99.90;;;;;;4974980;28;20097;-80
2022/12/10 00:53:44;;;;;;;69.25;25.65;;;-2.60;99.90;;;;;;4998124;28;20042;-80
2022/12/10 00:56:12;;;;;;;61.42;24.63;;;-2.70;99.90;;;;;;4985786;28;20091;-80
2022/12/10 00:58:38;;;;;;;64.43;24.95;;;-2.60;99.90;;;;;;4980868;28;20066;-80
2022/12/10 01:01:12;;;;;;;67.97;27.23;;;-2.70;99.90;;;;;;4981906;28;20034;-80
2022/12/10 01:03:39;;;;;;;65.55;25.33;;;-2.70;99.90;;;;;;4972004;28;20042;-80
2022/12/10 01:06:14;;;;;;;67.85;26.23;;;-2.70;99.90;;;;;;4989460;28;20033;-80
2022/12/10 01:08:41;;;;;;;102.53;53.08;;;-2.70;99.90;;;;;;4982489;28;20038;-80
2022/12/10 01:11:08;;;;;;;72.82;27.40;;;-2.70;99.90;;;;;;4980213;28;20076;-80
2022/12/10 01:13:34;;;;;;;74.00;27.00;;;-2.60;99.90;;;;;;4978688;28;20145;-79
2022/12/10 01:16:02;;;;;;;75.63;28.38;;;-2.70;99.90;;;;;;4985446;28;20034;-80
2022/12/10 01:18:31;;;;;;;139.65;59.65;;;-2.60;99.90;;;;;;4997191;28;20097;-80
2022/12/10 01:21:04;;;;;;;68.07;26.25;;;-2.60;99.90;;;;;;4981863;28;20092;-79
2022/12/10 01:23:34;;;;;;;74.53;26.33;;;-2.60;99.90;;;;;;4983220;28;20061;-80
2022/12/10 01:26:02;;;;;;;68.75;25.65;;;-2.60;99.90;;;;;;4989524;28;20038;-80
2022/12/10 01:28:36;;;;;;;83.72;26.90;;;-2.60;99.90;;;;;;4995583;28;20037;-80
2022/12/10 01:31:05;;;;;;;71.80;26.38;;;-2.50;99.90;;;;;;4980625;28;20034;-80
2022/12/10 01:33:31;;;;;;;72.05;27.77;;;-2.60;99.90;;;;;;4979117;28;20042;-80
2022/12/10 01:36:12;;;;;;;83.43;28.85;;;-2.50;99.90;;;;;;4980436;28;20042;-80
2022/12/10 01:38:39;;;;;;;77.20;26.30;;;-2.50;99.90;;;;;;4978913;28;20101;-79
2022/12/10 01:41:06;;;;;;;75.93;28.02;;;-2.50;99.90;;;;;;4972811;28;20039;-79
2022/12/10 01:43:55;;;;;;;82.97;26.33;;;-2.50;99.90;;;;;;4973011;28;20068;-79
2022/12/10 01:46:25;;;;;;;74.22;27.65;;;-2.50;99.90;;;;;;4978500;28;20045;-79
2022/12/10 01:49:33;;;;;;;69.78;27.77;;;-2.50;99.90;;;;;;4982628;28;20425;-79
2022/12/10 01:51:59;;;;;;;77.00;29.75;;;-2.50;99.90;;;;;;4963021;28;20117;-79
2022/12/10 01:54:28;;;;;;;75.95;26.92;;;-2.50;99.90;;;;;;4995913;28;20065;-80
2022/12/10 01:57:20;;;;;;;78.75;27.98;;;-2.50;99.90;;;;;;4972711;28;20034;-80
2022/12/10 01:59:49;;;;;;;64.07;25.98;;;-2.50;99.90;;;;;;4975829;28;20070;-79
2022/12/10 02:02:33;;;;;;;71.47;28.70;;;-2.50;99.90;;;;;;4992043;28;20041;-79
2022/12/10 02:05:04;;;;;;;69.75;27.23;;;-2.50;99.90;;;;;;4984623;28;20045;-79
2022/12/10 02:07:51;;;;;;;75.43;27.13;;;-2.60;99.90;;;;;;4977004;28;20050;-79
2022/12/10 02:10:29;;;;;;;69.80;27.98;;;-2.60;99.90;;;;;;4980632;28;20112;-80
2022/12/10 02:13:18;;;;;;;74.13;28.45;;;-2.60;99.90;;;;;;4987242;28;20038;-80
2022/12/10 02:15:58;;;;;;;76.32;27.25;;;-2.60;99.90;;;;;;4979082;28;20045;-79
2022/12/10 02:18:32;;;;;;;75.18;27.90;;;-2.70;99.90;;;;;;4982114;28;20038;-79
2022/12/10 02:21:03;;;;;;;81.32;27.73;;;-2.60;99.90;;;;;;4993123;28;20061;-79
2022/12/10 02:23:36;;;;;;;74.90;29.80;;;-2.60;99.90;;;;;;5000817;28;20437;-79
2022/12/10 02:26:31;;;;;;;73.28;27.83;;;-2.60;99.90;;;;;;4982105;28;20077;-79
2022/12/10 02:29:16;;;;;;;79.75;27.17;;;-2.70;99.90;;;;;;4980217;28;20104;-79
2022/12/10 02:31:49;;;;;;;71.88;27.45;;;-2.70;99.90;;;;;;4980435;28;20092;-79
2022/12/10 02:34:17;;;;;;;75.07;26.73;;;-2.70;99.90;;;;;;4993887;28;20050;-79
2022/12/10 02:36:47;;;;;;;74.13;28.92;;;-2.70;99.90;;;;;;4962466;28;20046;-79
2022/12/10 02:39:18;;;;;;;70.03;28.52;;;-2.80;99.90;;;;;;4960228;28;20043;-79
2022/12/10 02:41:50;;;;;;;79.38;28.52;;;-2.80;99.90;;;;;;4969834;28;20038;-79
2022/12/10 02:44:18;;;;;;;76.28;28.25;;;-2.80;99.90;;;;;;4974425;28;20497;-79
2022/12/10 02:46:47;;;;;;;77.45;27.75;;;-2.70;99.90;;;;;;4991203;28;20504;-79
2022/12/10 02:49:15;;;;;;;75.90;29.80;;;-2.80;99.90;;;;;;4975212;28;20042;-79
2022/12/10 02:51:41;;;;;;;66.35;28.58;;;-2.90;99.90;;;;;;4989083;28;20081;-79
2022/12/10 02:54:49;;;;;;;73.00;27.48;;;-2.90;99.90;;;;;;4975229;28;20125;-79
2022/12/10 02:57:53;;;;;;;69.43;26.73;;;-3.00;99.90;;;;;;4987374;28;20043;-79
2022/12/10 03:00:26;;;;;;;71.47;27.63;;;-3.00;99.90;;;;;;4982737;28;20173;-80
2022/12/10 03:03:17;;;;;;;74.95;27.65;;;-3.00;99.90;;;;;;4983490;28;20034;-80
2022/12/10 03:05:43;;;;;;;74.60;26.75;;;-3.00;99.90;;;;;;4982133;28;20500;-79
2022/12/10 03:08:13;;;;;;;73.28;24.98;;;-3.00;99.90;;;;;;4998771;28;20049;-79
2022/12/10 03:10:45;;;;;;;77.78;28.17;;;-3.10;99.90;;;;;;4981885;28;20042;-80
2022/12/10 03:13:19;;;;;;;74.97;27.25;;;-3.10;99.90;;;;;;4981148;28;20561;-80
2022/12/10 03:15:50;;;;;;;68.47;26.77;;;-3.10;99.90;;;;;;4998711;28;20097;-80
2022/12/10 03:18:19;;;;;;;73.25;27.83;;;-3.10;99.90;;;;;;4982185;28;20129;-80
2022/12/10 03:20:46;;;;;;;80.55;28.23;;;-3.10;99.90;;;;;;4996084;28;20509;-80
2022/12/10 03:23:16;;;;;;;72.10;25.90;;;-3.10;99.90;;;;;;4981327;28;20226;-80
2022/12/10 03:25:43;;;;;;;77.38;28.05;;;-3.20;99.90;;;;;;4980478;28;20039;-80
2022/12/10 03:28:09;;;;;;;65.53;26.60;;;-3.20;99.90;;;;;;4980169;28;20042;-80
2022/12/10 03:30:38;;;;;;;72.13;27.42;;;-3.30;99.90;;;;;;4979595;28;20046;-80
2022/12/10 03:33:04;;;;;;;72.50;26.70;;;-3.30;99.90;;;;;;4983846;28;20044;-80
2022/12/10 03:35:31;;;;;;;75.43;27.73;;;-3.30;99.90;;;;;;4979899;28;20107;-80
2022/12/10 03:37:57;;;;;;;65.60;26.58;;;-3.30;99.90;;;;;;4979465;28;20523;-80
2022/12/10 03:40:24;;;;;;;70.45;26.13;;;-3.40;99.90;;;;;;4979747;28;20043;-80
2022/12/10 03:42:51;;;;;;;76.32;29.45;;;-3.40;99.90;;;;;;4975788;28;20617;-80
2022/12/10 03:45:17;;;;;;;70.32;26.85;;;-3.30;99.90;;;;;;4988871;28;20041;-80
2022/12/10 03:47:43;;;;;;;71.75;28.20;;;-3.30;99.90;;;;;;4978490;28;20105;-80
2022/12/10 03:50:10;;;;;;;73.80;28.60;;;-3.30;99.90;;;;;;4979607;28;20077;-80
2022/12/10 03:52:38;;;;;;;76.45;28.23;;;-3.30;99.90;;;;;;4977602;28;20046;-80
2022/12/10 03:55:06;;;;;;;74.13;28.83;;;-3.30;99.90;;;;;;4994690;28;20046;-80
2022/12/10 03:57:32;;;;;;;82.80;27.55;;;-3.30;99.90;;;;;;4992986;28;20069;-80
2022/12/10 03:59:58;;;;;;;72.05;26.10;;;-3.30;99.90;;;;;;4977793;28;20409;-80
2022/12/10 04:02:24;;;;;;;71.65;27.88;;;-3.30;99.90;;;;;;4991719;28;20062;-80
2022/12/10 04:04:50;;;;;;;70.57;27.75;;;-3.30;99.90;;;;;;4960179;28;20493;-80
2022/12/10 04:07:18;;;;;;;75.50;27.38;;;-3.40;99.90;;;;;;4992437;28;20130;-80
2022/12/10 04:09:44;;;;;;;83.95;26.80;;;-3.40;99.90;;;;;;4977948;28;20038;-80
2022/12/10 04:12:13;;;;;;;69.63;26.13;;;-3.40;99.90;;;;;;4977340;28;20046;-80
2022/12/10 04:17:23;;;;;;;80.35;28.30;;;-3.40;99.90;;;;;;4977396;28;20074;-80
2022/12/10 04:19:49;;;;;;;83.30;30.52;;;-3.40;99.90;;;;;;4978318;28;20049;-80
2022/12/10 04:27:43;;;;;;;85.88;28.73;;;-3.40;99.90;;;;;;4994001;28;20057;-80
2022/12/10 04:30:11;;;;;;;80.38;30.45;;;-3.50;99.90;;;;;;4979508;28;20417;-80
2022/12/10 04:32:39;;;;;;;76.38;28.75;;;-3.50;99.90;;;;;;4979114;28;20038;-80
2022/12/10 04:35:06;;;;;;;73.22;25.95;;;-3.50;99.90;;;;;;4977093;28;20038;-80
2022/12/10 04:37:31;;;;;;;77.93;26.77;;;-3.60;99.90;;;;;;4976850;28;20708;-80
2022/12/10 04:39:57;;;;;;;72.03;26.67;;;-3.60;99.90;;;;;;4977132;28;20081;-79
2022/12/10 04:42:23;;;;;;;67.78;25.70;;;-3.50;99.90;;;;;;4976588;28;20038;-79
2022/12/10 04:44:49;;;;;;;73.47;26.42;;;-3.60;99.90;;;;;;4976396;28;20232;-80
2022/12/10 04:47:16;;;;;;;76.22;28.33;;;-3.60;99.90;;;;;;4975484;28;20038;-80
2022/12/10 04:49:42;;;;;;;67.28;26.42;;;-3.60;99.90;;;;;;4976612;28;20560;-80
2022/12/10 04:52:11;;;;;;;67.85;24.80;;;-3.60;99.90;;;;;;4977658;28;20046;-80
2022/12/10 04:54:37;;;;;;;64.30;25.05;;;-3.60;99.90;;;;;;4977743;28;20046;-80
2022/12/10 04:57:02;;;;;;;74.07;27.45;;;-3.60;99.90;;;;;;4976563;28;20056;-80
2022/12/10 04:59:28;;;;;;;72.32;28.80;;;-3.70;99.90;;;;;;4992689;28;20042;-79
2022/12/10 05:01:54;;;;;;;61.25;24.08;;;-3.60;99.90;;;;;;4973791;28;20053;-80
2022/12/10 05:04:20;;;;;;;70.90;27.60;;;-3.70;99.90;;;;;;4991088;28;20072;-80
2022/12/10 05:06:49;;;;;;;73.78;27.73;;;-3.70;99.90;;;;;;4968309;28;20042;-80
2022/12/10 05:09:16;;;;;;;68.60;26.27;;;-3.70;99.90;;;;;;4976345;28;20053;-80
2022/12/10 05:11:45;;;;;;;65.10;25.42;;;-3.80;99.90;;;;;;4989833;28;20084;-80
2022/12/10 05:14:14;;;;;;;71.32;25.90;;;-3.80;99.90;;;;;;4991011;28;20042;-80
2022/12/10 05:16:43;;;;;;;72.90;28.52;;;-3.80;99.90;;;;;;4991363;28;20042;-80
2022/12/10 05:19:10;;;;;;;67.63;24.60;;;-3.80;99.90;;;;;;4975400;28;20069;-80
2022/12/10 05:24:20;;;;;;;72.18;27.05;;;-3.80;99.90;;;;;;4999097;28;20042;-80
2022/12/10 05:26:50;;;;;;;76.55;25.48;;;-3.80;99.90;;;;;;4995854;28;20038;-80
2022/12/10 05:29:17;;;;;;;78.18;28.30;;;-3.70;99.90;;;;;;4994511;28;20504;-80
2022/12/10 05:31:43;;;;;;;73.90;27.83;;;-3.70;99.90;;;;;;4976116;28;20657;-80
2022/12/10 05:34:10;;;;;;;74.30;27.52;;;-3.60;99.90;;;;;;4977317;28;20121;-80
2022/12/10 05:36:37;;;;;;;89.63;32.00;;;-3.50;99.90;;;;;;4977860;28;20041;-79
2022/12/10 05:39:04;;;;;;;71.97;27.52;;;-3.50;99.90;;;;;;4975261;28;20097;-80
2022/12/10 05:41:34;;;;;;;74.93;27.05;;;-3.40;99.90;;;;;;4975176;28;20038;-80
2022/12/10 05:44:00;;;;;;;73.55;26.70;;;-3.40;99.90;;;;;;4957464;28;20129;-80
2022/12/10 05:46:29;;;;;;;75.85;27.88;;;-3.30;99.90;;;;;;4991838;28;20498;-80
2022/12/10 05:48:55;;;;;;;79.45;28.10;;;-3.20;99.90;;;;;;4986827;28;20320;-79
2022/12/10 05:51:23;;;;;;;80.53;30.10;;;-3.10;99.90;;;;;;4988729;28;20042;-80
2022/12/10 05:53:51;;;;;;;78.57;29.15;;;-3.10;99.90;;;;;;4984541;28;20048;-79
2022/12/10 05:56:19;;;;;;;98.35;30.52;;;-3.10;99.90;;;;;;4994980;28;20354;-79
2022/12/10 05:58:47;;;;;;;97.60;31.17;;;-3.00;99.90;;;;;;4996745;28;20038;-79
2022/12/10 06:01:16;;;;;;;90.03;29.98;;;-3.00;99.90;;;;;;4989072;28;20035;-79
2022/12/10 06:03:42;;;;;;;98.47;31.17;;;-2.90;99.90;;;;;;4995453;28;20544;-80
2022/12/10 06:06:08;;;;;;;100.75;31.65;;;-2.90;99.90;;;;;;4977866;28;20216;-80
2022/12/10 06:08:35;;;;;;;108.47;34.17;;;-2.80;99.90;;;;;;4977863;28;20409;-80
2022/12/10 06:11:03;;;;;;;92.53;29.80;;;-2.80;99.90;;;;;;4995935;28;20035;-80
2022/12/10 06:13:29;;;;;;;170.27;65.65;;;-2.70;99.90;;;;;;4978565;28;20034;-80
2022/12/10 06:15:56;;;;;;;96.50;30.23;;;-2.70;99.90;;;;;;4978132;28;20469;-80
2022/12/10 06:18:23;;;;;;;105.70;32.03;;;-2.60;99.90;;;;;;4995218;28;20037;-79
2022/12/10 06:20:49;;;;;;;86.55;30.08;;;-2.60;99.90;;;;;;4994229;28;20026;-80
2022/12/10 06:23:15;;;;;;;86.30;29.35;;;-2.60;99.90;;;;;;4976555;28;20093;-80
2022/12/10 06:25:41;;;;;;;102.25;31.60;;;-2.60;99.90;;;;;;4992991;28;20042;-79
2022/12/10 06:28:08;;;;;;;89.82;31.10;;;-2.50;99.90;;;;;;4978339;28;20046;-79
2022/12/10 06:30:36;;;;;;;92.85;32.75;;;-2.60;99.90;;;;;;4977186;28;20038;-79
2022/12/10 06:33:02;;;;;;;89.07;32.67;;;-2.50;99.90;;;;;;4976977;28;20415;-79
2022/12/10 06:35:29;;;;;;;94.43;31.50;;;-2.40;99.90;;;;;;4975989;28;20054;-79
2022/12/10 06:37:54;;;;;;;93.22;31.38;;;-2.50;99.90;;;;;;4977522;28;20039;-80
2022/12/10 06:40:20;;;;;;;92.47;31.63;;;-2.40;99.90;;;;;;4977636;28;20053;-80
2022/12/10 06:42:49;;;;;;;104.13;33.55;;;-2.40;99.90;;;;;;4979749;28;20129;-80
2022/12/10 06:45:15;;;;;;;94.40;30.63;;;-2.30;99.90;;;;;;4976475;28;20042;-80
2022/12/10 06:47:41;;;;;;;169.35;66.30;;;-2.40;99.90;;;;;;4975694;28;20038;-80
2022/12/10 06:50:07;;;;;;;103.80;33.42;;;-2.40;99.90;;;;;;4993846;28;20046;-80
2022/12/10 06:52:36;;;;;;;99.57;32.78;;;-2.40;99.90;;;;;;4996369;28;20042;-79
2022/12/10 06:55:02;;;;;;;100.22;31.98;;;-2.30;99.90;;;;;;4991776;28;20072;-79
2022/12/10 06:57:28;;;;;;;94.78;31.80;;;-2.30;99.90;;;;;;4972257;28;20042;-80
2022/12/10 06:59:54;;;;;;;173.30;66.22;;;-2.20;99.90;;;;;;4975437;28;20156;-79
2022/12/10 07:02:26;;;;;;;103.50;31.50;;;-2.30;99.90;;;;;;4975129;28;20038;-79
2022/12/10 07:05:43;;;;;;;96.35;32.58;;;-2.30;99.90;;;;;;4971891;28;20042;-82
2022/12/10 07:08:46;;;;;;;96.25;32.45;;;-2.20;99.90;;;;;;4932790;29;20061;-81
2022/12/10 07:11:35;;;;;;;92.70;31.33;;;-2.20;99.90;;;;;;4895768;29;20052;-82
2022/12/10 07:38:42;;;;;;;101.68;33.35;;;-2.10;99.90;;;;;;5221796;23;20073;-81
2022/12/10 07:42:04;;;;;;;106.18;33.05;;;-2.10;99.90;;;;;;5000749;28;20053;-81
2022/12/10 07:44:44;;;;;;;115.45;31.30;;;-2.00;99.90;;;;;;4993463;28;20054;-81
2022/12/10 07:54:35;;;;;;;;;;;;;;;;;;;;;
2022/12/10 07:57:22;;;;;;;;;;;;;;;;;;;;;
2022/12/10 08:06:42;;;;;;;169.40;66.50;;;-1.90;99.90;;;;;;5255022;22;20514;-79
2022/12/10 08:10:30;;;;;;;101.18;32.53;;;-1.90;99.90;;;;;;5054270;28;20095;-80
2022/12/10 08:50:58;;;;;;;168.27;61.60;;;-1.70;99.90;;;;;;5002073;28;20099;-82
2022/12/10 09:04:42;;;;;;;90.22;28.20;;;-1.60;99.90;;;;;;5398543;22;20145;-82
2022/12/10 09:07:24;;;;;;;70.88;27.00;;;-1.60;99.90;;;;;;5003057;28;20091;-82
2022/12/10 09:09:58;;;;;;;82.13;27.80;;;-1.60;99.90;;;;;;5007234;28;20037;-81
2022/12/10 09:24:59;;;;;;;128.50;50.92;;;-1.50;99.90;;;;;;5008940;28;20044;-82
2022/12/10 09:38:24;;;;;;;137.57;52.92;;;-1.50;99.90;;;;;;5050515;23;20080;-80
2022/12/10 10:46:08;;;;;;;159.90;54.72;;;-0.90;99.90;;;;;;4916643;28;20113;-80
2022/12/10 11:08:12;;;;;;;;;;;;;;;;;;;;;
2022/12/10 11:11:21;;;;;;;;;;;-0.70;99.90;;;;;;4885435;29;20056;-80
2022/12/10 11:22:39;;;;;;;166.25;57.15;;;-0.70;99.90;;;;;;5041923;22;20077;-80
2022/12/10 11:29:36;;;;;;;158.55;55.83;;;-0.60;99.90;;;;;;4931858;29;20051;-78
2022/12/10 11:32:26;;;;;;;167.50;56.45;;;-0.60;99.90;;;;;;4975071;28;20053;-77
2022/12/10 11:35:07;;;;;;;146.18;52.47;;;-0.60;99.90;;;;;;5002020;28;20072;-77
2022/12/10 11:37:56;;;;;;;162.77;56.85;;;-0.50;99.90;;;;;;5002099;28;20038;-77
2022/12/10 11:40:21;;;;;;;157.10;55.08;;;-0.50;99.90;;;;;;5007411;28;20142;-77
2022/12/10 11:43:32;;;;;;;172.00;57.55;;;-0.60;99.90;;;;;;4983679;28;20046;-79
2022/12/10 11:46:37;;;;;;;190.57;60.25;;;-0.50;99.90;;;;;;4966499;28;20050;-78
2022/12/10 11:49:43;;;;;;;203.73;64.82;;;-0.50;99.90;;;;;;4963265;28;20060;-78
2022/12/10 11:52:40;;;;;;;201.20;65.35;;;-0.50;99.90;;;;;;5021648;28;20037;-80
2022/12/10 11:55:47;;;;;;;216.15;64.38;;;-0.40;99.90;;;;;;4980769;28;20045;-77
2022/12/10 11:58:41;;;;;;;186.45;63.70;;;-0.50;99.90;;;;;;4978653;28;20041;-80
2022/12/10 12:01:30;;;;;;;214.88;62.30;;;-0.40;99.90;;;;;;4984285;28;20038;-76
2022/12/10 12:04:35;;;;;;;196.88;65.45;;;-0.40;99.90;;;;;;4996169;28;20040;-77
2022/12/10 12:07:21;;;;;;;219.55;67.80;;;-0.40;99.90;;;;;;4996241;28;20038;-76
2022/12/10 12:10:24;;;;;;;225.45;69.45;;;-0.40;99.90;;;;;;4976866;28;20057;-76
2022/12/10 12:13:37;;;;;;;228.77;69.80;;;-0.40;99.90;;;;;;4984570;28;20703;-77
2022/12/10 12:16:23;;;;;;;223.27;70.40;;;-0.40;99.90;;;;;;4987648;28;20273;-77
2022/12/10 12:19:10;;;;;;;215.20;67.90;;;-0.40;99.90;;;;;;4979252;28;20481;-78
2022/12/10 12:22:05;;;;;;;207.00;68.68;;;-0.40;99.90;;;;;;4992747;28;20053;-77
2022/12/10 12:24:46;;;;;;;237.68;70.88;;;-0.40;99.90;;;;;;4995635;28;20153;-77
2022/12/10 12:27:37;;;;;;;231.43;69.95;;;-0.40;99.90;;;;;;4978903;28;20124;-77
2022/12/10 12:30:15;;;;;;;222.75;66.43;;;-0.30;99.90;;;;;;4979723;28;20033;-77
2022/12/10 12:33:19;;;;;;;206.88;68.13;;;-0.30;99.90;;;;;;4985722;28;20100;-77
2022/12/10 12:36:00;;;;;;;178.82;59.70;;;-0.30;99.90;;;;;;4927382;28;20055;-77
2022/12/10 12:38:40;;;;;;;173.45;57.63;;;-0.30;99.90;;;;;;4976736;28;20128;-76
2022/12/10 12:41:38;;;;;;;164.63;59.65;;;-0.10;99.90;;;;;;4990115;28;20037;-73
2022/12/10 12:44:22;;;;;;;183.75;62.45;;;-0.10;99.90;;;;;;4952959;28;20046;-76
2022/12/10 12:46:57;;;;;;;147.65;54.33;;;-0.10;99.90;;;;;;4988940;28;20041;-76
2022/12/10 12:49:47;;;;;;;142.45;56.10;;;0.00;99.90;;;;;;4989777;28;20527;-77
2022/12/10 12:52:36;;;;;;;146.07;53.40;;;0.00;99.90;;;;;;4983168;28;20072;-77
2022/12/10 12:55:50;;;;;;;149.10;53.58;;;0.00;99.90;;;;;;4976660;28;20477;-77
2022/12/10 12:58:37;;;;;;;146.88;54.60;;;0.10;99.90;;;;;;4976406;28;20125;-76
2022/12/10 13:01:43;;;;;;;132.48;53.70;;;0.10;99.90;;;;;;4996730;28;20030;-76
2022/12/10 13:04:15;;;;;;;153.13;56.53;;;0.20;99.90;;;;;;4978099;28;20508;-76
2022/12/10 13:07:17;;;;;;;174.10;58.27;;;0.20;99.90;;;;;;4978963;28;20057;-77
2022/12/10 13:10:11;;;;;;;183.75;57.78;;;0.10;99.90;;;;;;4977973;28;20477;-76
2022/12/10 13:13:22;;;;;;;142.80;54.08;;;0.10;99.90;;;;;;4996770;28;20514;-76
2022/12/10 13:15:57;;;;;;;142.32;52.35;;;0.10;99.90;;;;;;4994954;28;20057;-77
2022/12/10 13:18:44;;;;;;;133.95;52.42;;;0.00;99.90;;;;;;4978549;28;20477;-76
2022/12/10 13:21:32;;;;;;;146.13;54.22;;;0.00;99.90;;;;;;4972421;28;20033;-76
2022/12/10 13:24:28;;;;;;;124.70;50.67;;;0.00;99.90;;;;;;5004014;28;20045;-76
2022/12/10 13:27:11;;;;;;;121.75;49.65;;;0.00;99.90;;;;;;4995015;28;20065;-76
2022/12/10 13:29:58;;;;;;;;;;;0.00;99.90;;;;;;4995440;28;20160;-76
2022/12/10 13:32:44;;;;;;;117.70;49.63;;;0.00;99.90;;;;;;4994436;28;19997;-76
2022/12/10 13:35:41;;;;;;;128.40;49.67;;;0.00;99.90;;;;;;5004297;28;20038;-77
2022/12/10 13:38:38;;;;;;;140.80;49.50;;;0.00;99.90;;;;;;4958543;28;20084;-76
2022/12/10 13:44:37;;;;;;;130.25;49.55;;;-0.10;99.90;;;;;;4974862;28;19921;-76
2022/12/10 13:47:32;;;;;;;116.38;47.38;;;-0.10;99.90;;;;;;4988318;28;20053;-76
2022/12/10 13:50:29;;;;;;;138.00;50.67;;;-0.20;99.90;;;;;;4986246;28;20081;-76
2022/12/10 13:53:17;;;;;;;131.75;49.05;;;-0.20;99.90;;;;;;4988467;28;20035;-76
2022/12/10 13:56:07;;;;;;;151.15;50.80;;;-0.20;99.90;;;;;;4984518;28;20129;-76
2022/12/10 13:59:13;;;;;;;137.38;49.17;;;-0.30;99.90;;;;;;4994432;28;20419;-76
2022/12/10 14:02:20;;;;;;;124.10;49.15;;;-0.30;99.90;;;;;;4993823;28;20038;-76
2022/12/10 14:05:28;;;;;;;127.25;48.25;;;-0.30;99.90;;;;;;4978545;28;20038;-76
2022/12/10 14:08:05;;;;;;;152.55;51.10;;;-0.30;99.90;;;;;;4976130;28;20050;-76
2022/12/10 14:10:36;;;;;;;120.32;47.50;;;-0.30;99.90;;;;;;4978115;28;20053;-76
2022/12/10 14:13:10;;;;;;;124.67;50.03;;;-0.30;99.90;;;;;;4977692;28;20038;-76
2022/12/10 14:15:55;;;;;;;138.80;50.20;;;-0.30;99.90;;;;;;4975510;28;20073;-76
2022/12/10 14:18:22;;;;;;;115.85;47.85;;;-0.30;99.90;;;;;;4981690;28;20034;-76
2022/12/10 14:21:10;;;;;;;117.20;49.20;;;-0.30;99.90;;;;;;5010118;28;20096;-76
2022/12/10 14:23:48;;;;;;;129.18;47.55;;;-0.30;99.90;;;;;;4969175;28;20030;-76
2022/12/10 14:26:29;;;;;;;105.68;45.05;;;-0.30;99.90;;;;;;4994567;28;20092;-76
2022/12/10 14:29:17;;;;;;;109.35;45.53;;;-0.30;99.90;;;;;;4994424;28;20054;-77
2022/12/10 14:32:00;;;;;;;115.60;45.17;;;-0.30;99.90;;;;;;4993735;28;20155;-76
2022/12/10 14:34:35;;;;;;;120.07;46.08;;;-0.30;99.90;;;;;;4975314;28;20042;-76
2022/12/10 14:37:13;;;;;;;109.38;45.75;;;-0.30;99.90;;;;;;4993863;28;20050;-76
2022/12/10 14:40:05;;;;;;;113.97;45.10;;;-0.30;99.90;;;;;;4993759;28;20161;-76
2022/12/10 14:42:47;;;;;;;116.07;46.92;;;-0.30;99.90;;;;;;4994098;28;20152;-76
2022/12/10 14:45:30;;;;;;;119.57;46.00;;;-0.30;99.90;;;;;;4994021;28;20073;-76
2022/12/10 14:48:07;;;;;;;123.18;47.22;;;-0.30;99.90;;;;;;4992117;28;20073;-77
2022/12/10 14:50:48;;;;;;;139.23;48.60;;;-0.30;99.90;;;;;;4984428;28;21200;-76
2022/12/10 14:53:21;;;;;;;126.60;48.33;;;-0.30;99.90;;;;;;5004590;28;20480;-76
2022/12/10 14:55:58;;;;;;;132.18;47.28;;;-0.30;99.90;;;;;;4981266;28;20042;-76
2022/12/10 14:59:11;;;;;;;140.70;48.58;;;-0.30;99.90;;;;;;4997390;28;20103;-78
2022/12/10 15:01:58;;;;;;;137.00;48.35;;;-0.40;99.90;;;;;;4978895;28;20042;-77
2022/12/10 15:04:43;;;;;;;123.93;47.60;;;-0.30;99.90;;;;;;4973386;28;20088;-78
2022/12/10 15:07:36;;;;;;;140.43;50.38;;;-0.30;99.90;;;;;;4988265;28;20570;-78
2022/12/10 15:10:10;;;;;;;142.05;48.38;;;-0.30;99.90;;;;;;4991197;28;20389;-77
2022/12/10 15:13:02;;;;;;;131.52;47.30;;;-0.30;99.90;;;;;;4998010;28;20049;-77
2022/12/10 15:15:50;;;;;;;126.38;46.22;;;-0.40;99.90;;;;;;4997743;28;20066;-78
2022/12/10 15:18:32;;;;;;;128.15;46.75;;;-0.40;99.90;;;;;;4994763;28;20037;-78
2022/12/10 15:21:53;;;;;;;141.93;45.65;;;-0.40;99.90;;;;;;5000837;28;20066;-78
2022/12/10 15:24:40;;;;;;;153.55;47.97;;;-0.40;99.90;;;;;;4937236;29;20047;-78
2022/12/10 15:27:36;;;;;;;148.80;48.42;;;-0.40;99.90;;;;;;4966398;28;20045;-77
2022/12/10 15:30:24;;;;;;;158.90;48.67;;;-0.40;99.90;;;;;;4974375;28;20038;-77
2022/12/10 15:33:06;;;;;;;151.50;47.95;;;-0.40;99.90;;;;;;5002450;28;20511;-78
2022/12/10 15:35:46;;;;;;;155.65;48.03;;;-0.40;99.90;;;;;;4997867;28;20081;-77
2022/12/10 15:38:13;;;;;;;157.52;49.63;;;-0.40;99.90;;;;;;4996712;28;20037;-78
2022/12/10 15:40:50;;;;;;;162.40;49.60;;;-0.40;99.90;;;;;;4996706;28;20037;-78
2022/12/10 15:43:40;;;;;;;153.70;46.28;;;-0.40;99.90;;;;;;4986989;28;20046;-78
2022/12/10 15:46:52;;;;;;;85.82;22.35;;;-0.40;99.90;;;;;;4986244;28;20042;-78
2022/12/10 15:49:40;;;;;;;126.82;45.05;;;-0.40;99.90;;;;;;4958603;28;20137;-78
2022/12/10 15:52:24;;;;;;;136.27;47.10;;;-0.50;99.90;;;;;;4992551;28;20046;-80
2022/12/10 15:55:20;;;;;;;167.40;47.17;;;-0.50;99.90;;;;;;5005866;28;20062;-78
2022/12/10 15:58:00;;;;;;;166.57;48.05;;;-0.50;99.90;;;;;;4994660;28;20040;-79
2022/12/10 16:00:43;;;;;;;153.30;46.20;;;-0.50;99.90;;;;;;4981493;28;20108;-79
2022/12/10 16:03:18;;;;;;;153.95;47.75;;;-0.50;99.90;;;;;;4991916;28;20073;-79
2022/12/10 16:06:07;;;;;;;189.40;51.00;;;-0.40;99.90;;;;;;4992599;28;20041;-79
2022/12/10 16:08:38;;;;;;;164.15;48.92;;;-0.50;99.90;;;;;;4985695;28;20088;-79
2022/12/10 16:11:17;;;;;;;164.80;47.83;;;-0.50;99.90;;;;;;4990788;28;20048;-79
2022/12/10 16:13:56;;;;;;;161.82;46.35;;;-0.50;99.90;;;;;;4998609;28;20044;-79
2022/12/10 16:16:29;;;;;;;191.73;47.30;;;-0.40;99.90;;;;;;4993329;28;20489;-79
2022/12/10 16:18:58;;;;;;;145.23;44.30;;;-0.50;99.90;;;;;;4997697;28;20092;-79
2022/12/10 16:21:32;;;;;;;166.23;45.72;;;-0.50;99.90;;;;;;4987326;28;20034;-77
2022/12/10 16:24:07;;;;;;;173.70;47.63;;;-0.50;99.90;;;;;;4977091;28;20109;-78
2022/12/10 16:26:36;;;;;;;192.00;48.75;;;-0.50;99.90;;;;;;4988569;28;20037;-79
2022/12/10 16:29:02;;;;;;;201.75;47.78;;;-0.50;99.90;;;;;;4980144;28;20042;-78
2022/12/10 16:31:29;;;;;;;189.60;48.00;;;-0.50;99.90;;;;;;4973437;28;20456;-78
2022/12/10 16:34:00;;;;;;;202.02;48.25;;;-0.60;99.90;;;;;;4982701;28;20056;-78
2022/12/10 16:36:29;;;;;;;146.40;44.60;;;-0.50;99.90;;;;;;4976059;28;20046;-78
2022/12/10 16:38:58;;;;;;;233.00;46.78;;;-0.50;99.90;;;;;;4993168;28;20412;-78
2022/12/10 16:41:29;;;;;;;247.52;50.28;;;-0.60;99.90;;;;;;4979141;28;20042;-79
2022/12/10 16:43:58;;;;;;;164.57;46.67;;;-0.50;99.90;;;;;;4983723;28;20038;-78
2022/12/10 16:46:26;;;;;;;198.80;47.58;;;-0.60;99.90;;;;;;4981091;28;20052;-79
2022/12/10 16:48:52;;;;;;;223.57;47.15;;;-0.60;99.90;;;;;;4971037;28;20121;-78
2022/12/10 16:51:24;;;;;;;178.70;44.97;;;-0.60;99.90;;;;;;4986655;28;20129;-78
2022/12/10 16:54:00;;;;;;;205.93;46.30;;;-0.60;99.90;;;;;;5000517;28;20040;-78
2022/12/10 16:56:45;;;;;;;178.65;44.88;;;-0.60;99.90;;;;;;4999388;28;20034;-82
2022/12/10 16:59:25;;;;;;;143.02;42.22;;;-0.60;99.90;;;;;;4978834;28;20067;-81
2022/12/10 17:02:01;;;;;;;147.13;42.72;;;-0.60;99.90;;;;;;4978848;28;20050;-79